createdAt,value
2023-08-15T00:00:57.953Z,22.71
2023-08-15T00:01:59.735Z,22.72
2023-08-15T00:03:01.524Z,22.73
2023-08-15T00:04:03.683Z,22.72
2023-08-15T00:05:05.825Z,22.71
2023-08-15T00:06:07.784Z,22.69
2023-08-15T00:07:09.628Z,22.71
2023-08-15T00:08:11.348Z,22.69
2023-08-15T00:09:13.136Z,22.69
2023-08-15T00:10:14.939Z,22.67
2023-08-15T00:11:16.797Z,22.67
2023-08-15T00:12:18.618Z,22.66
2023-08-15T00:13:20.485Z,22.66
2023-08-15T00:14:22.825Z,22.65
2023-08-15T00:15:24.590Z,22.65
2023-08-15T00:16:26.457Z,22.65
2023-08-15T00:17:28.200Z,22.63
2023-08-15T00:18:29.979Z,22.60
2023-08-15T00:19:31.792Z,22.56
2023-08-15T00:20:33.680Z,22.55
2023-08-15T00:21:35.723Z,22.55
2023-08-15T00:22:37.626Z,22.56
2023-08-15T00:23:39.622Z,22.57
2023-08-15T00:24:41.681Z,22.55
2023-08-15T00:25:44.034Z,22.51
2023-08-15T00:26:45.715Z,22.50
2023-08-15T00:27:47.744Z,22.49
2023-08-15T00:28:49.641Z,22.49
2023-08-15T00:29:51.645Z,22.51
2023-08-15T00:30:53.500Z,22.51
2023-08-15T00:31:55.282Z,22.48
2023-08-15T00:32:57.577Z,22.47
2023-08-15T00:33:59.318Z,22.48
2023-08-15T00:35:01.143Z,22.49
2023-08-15T00:36:04.571Z,22.48
2023-08-15T00:37:06.397Z,22.45
2023-08-15T00:38:08.215Z,22.43
2023-08-15T00:39:10.286Z,22.42
2023-08-15T00:40:12.306Z,22.42
2023-08-15T00:41:14.416Z,22.42
2023-08-15T00:43:20.443Z,22.44
2023-08-15T00:44:22.236Z,22.44
2023-08-15T00:45:24.024Z,22.41
2023-08-15T00:46:29.554Z,22.42
2023-08-15T00:48:34.252Z,22.40
2023-08-15T00:49:36.036Z,22.41
2023-08-15T00:51:40.228Z,22.40
2023-08-15T00:52:42.322Z,22.37
2023-08-15T00:53:44.423Z,22.36
2023-08-15T00:54:50.595Z,22.34
2023-08-15T00:55:53.408Z,22.32
2023-08-15T00:56:55.305Z,22.30
2023-08-15T00:57:57.211Z,22.30
2023-08-15T00:58:59.014Z,22.28
2023-08-15T01:00:00.896Z,22.26
2023-08-15T01:01:03.163Z,22.25
2023-08-15T01:02:05.115Z,22.23
2023-08-15T01:03:07.384Z,22.24
2023-08-15T01:04:09.702Z,22.25
2023-08-15T01:05:12.374Z,22.27
2023-08-15T01:06:14.219Z,22.23
2023-08-15T01:07:19.713Z,22.23
2023-08-15T01:08:21.772Z,22.23
2023-08-15T01:09:23.521Z,22.21
2023-08-15T01:10:25.399Z,22.22
2023-08-15T01:11:33.698Z,22.22
2023-08-15T01:12:54.407Z,22.20
2023-08-15T01:14:05.964Z,22.18
2023-08-15T01:15:10.487Z,22.15
2023-08-15T01:16:15.064Z,22.14
2023-08-15T01:17:19.513Z,22.13
2023-08-15T01:18:28.303Z,22.14
2023-08-15T01:19:35.226Z,22.12
2023-08-15T01:20:38.536Z,22.12
2023-08-15T01:21:42.929Z,22.12
2023-08-15T01:22:45.346Z,22.13
2023-08-15T01:23:48.278Z,22.13
2023-08-15T01:24:50.131Z,22.13
2023-08-15T01:25:55.013Z,22.13
2023-08-15T01:26:56.783Z,22.12
2023-08-15T01:27:58.627Z,22.13
2023-08-15T01:29:00.365Z,22.14
2023-08-15T01:30:02.253Z,22.11
2023-08-15T01:31:13.738Z,22.07
2023-08-15T01:32:30.304Z,22.07
2023-08-15T01:33:40.914Z,22.09
2023-08-15T01:34:47.787Z,22.07
2023-08-15T01:35:51.189Z,22.06
2023-08-15T01:36:55.815Z,22.03
2023-08-15T01:38:02.970Z,22.03
2023-08-15T01:39:06.296Z,22.02
2023-08-15T01:40:11.037Z,22.00
2023-08-15T01:41:17.659Z,22.00
2023-08-15T01:42:22.087Z,21.94
2023-08-15T01:43:24.178Z,21.93
2023-08-15T01:44:26.746Z,21.94
2023-08-15T01:45:29.544Z,21.95
2023-08-15T01:46:31.475Z,21.96
2023-08-15T01:47:36.136Z,21.98
2023-08-15T01:48:43.983Z,21.99
2023-08-15T01:49:45.713Z,21.98
2023-08-15T01:50:47.458Z,21.98
2023-08-15T01:51:49.207Z,21.99
2023-08-15T01:52:51.248Z,21.98
2023-08-15T01:53:53.123Z,21.97
2023-08-15T01:54:54.913Z,21.96
2023-08-15T01:55:56.688Z,21.95
2023-08-15T01:56:58.578Z,21.94
2023-08-15T01:58:00.370Z,21.91
2023-08-15T01:59:02.127Z,21.89
2023-08-15T02:00:04.524Z,21.88
2023-08-15T02:01:06.471Z,21.86
2023-08-15T02:02:08.287Z,21.83
2023-08-15T02:03:10.213Z,21.78
2023-08-15T02:04:11.885Z,21.74
2023-08-15T02:05:14.728Z,21.75
2023-08-15T02:06:16.564Z,21.76
2023-08-15T02:07:18.698Z,21.77
2023-08-15T02:08:22.084Z,21.75
2023-08-15T02:09:23.909Z,21.71
2023-08-15T02:10:26.220Z,21.69
2023-08-15T02:11:28.079Z,21.70
2023-08-15T02:12:29.758Z,21.70
2023-08-15T02:13:35.115Z,21.70
2023-08-15T02:14:37.095Z,21.70
2023-08-15T02:15:39.004Z,21.71
2023-08-15T02:16:40.998Z,21.69
2023-08-15T02:17:43.188Z,21.68
2023-08-15T02:18:45.177Z,21.66
2023-08-15T02:19:47.121Z,21.65
2023-08-15T02:20:48.850Z,21.65
2023-08-15T02:21:50.624Z,21.65
2023-08-15T02:22:52.653Z,21.64
2023-08-15T02:23:54.427Z,21.62
2023-08-15T02:24:56.144Z,21.60
2023-08-15T02:25:58.010Z,21.58
2023-08-15T02:26:59.837Z,21.53
2023-08-15T02:28:01.704Z,21.51
2023-08-15T02:29:04.945Z,21.51
2023-08-15T02:30:07.175Z,21.53
2023-08-15T02:31:11.666Z,21.52
2023-08-15T02:32:13.614Z,21.52
2023-08-15T02:33:15.288Z,21.52
2023-08-15T02:34:18.023Z,21.53
2023-08-15T02:35:19.869Z,21.54
2023-08-15T02:36:22.758Z,21.54
2023-08-15T02:37:24.489Z,21.52
2023-08-15T02:38:26.399Z,21.50
2023-08-15T02:39:28.178Z,21.50
2023-08-15T02:40:29.896Z,21.48
2023-08-15T02:41:31.606Z,21.47
2023-08-15T02:42:34.288Z,21.46
2023-08-15T02:43:36.198Z,21.45
2023-08-15T02:44:38.139Z,21.45
2023-08-15T02:45:39.958Z,21.44
2023-08-15T02:46:41.853Z,21.44
2023-08-15T02:47:43.744Z,21.45
2023-08-15T02:48:45.715Z,21.45
2023-08-15T02:49:47.502Z,21.44
2023-08-15T02:50:49.420Z,21.44
2023-08-15T02:51:51.212Z,21.43
2023-08-15T02:52:53.021Z,21.44
2023-08-15T02:53:54.753Z,21.45
2023-08-15T02:54:56.547Z,21.44
2023-08-15T02:55:58.311Z,21.45
2023-08-15T02:57:00.048Z,21.42
2023-08-15T02:58:02.073Z,21.42
2023-08-15T02:59:03.893Z,21.40
2023-08-15T03:00:06.268Z,21.38
2023-08-15T03:01:08.666Z,21.37
2023-08-15T03:02:11.363Z,21.36
2023-08-15T03:03:13.240Z,21.37
2023-08-15T03:04:15.033Z,21.38
2023-08-15T03:05:16.722Z,21.38
2023-08-15T03:06:19.242Z,21.37
2023-08-15T03:07:21.224Z,21.36
2023-08-15T03:08:23.270Z,21.34
2023-08-15T03:09:25.097Z,21.33
2023-08-15T03:10:26.981Z,21.30
2023-08-15T03:11:30.818Z,21.26
2023-08-15T03:12:32.740Z,21.25
2023-08-15T03:13:34.742Z,21.28
2023-08-15T03:14:36.802Z,21.24
2023-08-15T03:15:39.198Z,21.26
2023-08-15T03:16:41.302Z,21.27
2023-08-15T03:17:44.191Z,21.28
2023-08-15T03:18:46.179Z,21.28
2023-08-15T03:19:48.162Z,21.24
2023-08-15T03:21:00.690Z,21.24
2023-08-15T03:22:02.698Z,21.22
2023-08-15T03:23:04.847Z,21.22
2023-08-15T03:24:07.159Z,21.21
2023-08-15T03:25:09.584Z,21.20
2023-08-15T03:26:11.507Z,21.21
2023-08-15T03:27:13.567Z,21.23
2023-08-15T03:28:15.475Z,21.24
2023-08-15T03:29:17.425Z,21.25
2023-08-15T03:30:19.500Z,21.25
2023-08-15T03:31:22.705Z,21.25
2023-08-15T03:32:24.670Z,21.23
2023-08-15T03:33:27.261Z,21.22
2023-08-15T03:34:29.301Z,21.21
2023-08-15T03:35:31.574Z,21.17
2023-08-15T03:36:33.324Z,21.16
2023-08-15T03:37:36.840Z,21.14
2023-08-15T03:38:38.816Z,21.14
2023-08-15T03:39:40.756Z,21.11
2023-08-15T03:40:43.344Z,21.09
2023-08-15T03:41:46.574Z,21.10
2023-08-15T03:42:48.561Z,21.08
2023-08-15T03:43:50.619Z,21.08
2023-08-15T03:44:52.628Z,21.07
2023-08-15T03:45:54.621Z,21.08
2023-08-15T03:46:56.649Z,21.10
2023-08-15T03:47:58.627Z,21.08
2023-08-15T03:49:00.654Z,21.06
2023-08-15T03:50:03.271Z,21.04
2023-08-15T03:51:05.565Z,21.03
2023-08-15T03:52:07.525Z,21.02
2023-08-15T03:53:10.950Z,21.02
2023-08-15T03:54:13.168Z,21.01
2023-08-15T03:55:15.226Z,20.97
2023-08-15T03:56:17.114Z,20.96
2023-08-15T03:57:19.392Z,20.94
2023-08-15T03:58:22.880Z,20.94
2023-08-15T03:59:24.922Z,20.93
2023-08-15T04:00:26.965Z,20.95
2023-08-15T04:01:28.982Z,20.95
2023-08-15T04:02:30.957Z,20.93
2023-08-15T04:03:33.015Z,20.93
2023-08-15T04:04:34.900Z,20.92
2023-08-15T04:05:36.798Z,20.94
2023-08-15T04:06:38.674Z,20.94
2023-08-15T04:07:40.952Z,20.93
2023-08-15T04:08:42.743Z,20.90
2023-08-15T04:09:44.845Z,20.88
2023-08-15T04:10:47.313Z,20.87
2023-08-15T04:11:49.086Z,20.86
2023-08-15T04:12:50.847Z,20.87
2023-08-15T04:13:52.555Z,20.88
2023-08-15T04:14:54.481Z,20.86
2023-08-15T04:15:56.598Z,20.87
2023-08-15T04:16:58.470Z,20.87
2023-08-15T04:18:00.213Z,20.88
2023-08-15T04:19:02.269Z,20.90
2023-08-15T04:20:08.628Z,20.89
2023-08-15T04:21:12.647Z,20.86
2023-08-15T04:22:14.609Z,20.86
2023-08-15T04:23:16.309Z,20.84
2023-08-15T04:24:20.490Z,20.80
2023-08-15T04:25:22.290Z,20.81
2023-08-15T04:26:24.171Z,20.82
2023-08-15T04:27:25.812Z,20.82
2023-08-15T04:28:27.823Z,20.82
2023-08-15T04:29:29.529Z,20.84
2023-08-15T04:30:31.946Z,20.82
2023-08-15T04:31:33.867Z,20.80
2023-08-15T04:32:35.795Z,20.78
2023-08-15T04:33:37.684Z,20.78
2023-08-15T04:34:39.405Z,20.75
2023-08-15T04:35:41.181Z,20.71
2023-08-15T04:36:46.145Z,20.72
2023-08-15T04:37:47.941Z,20.72
2023-08-15T04:38:49.692Z,20.68
2023-08-15T04:39:52.303Z,20.67
2023-08-15T04:40:55.978Z,20.68
2023-08-15T04:41:59.124Z,20.68
2023-08-15T04:43:01.535Z,20.65
2023-08-15T04:44:03.792Z,20.64
2023-08-15T04:45:05.788Z,20.64
2023-08-15T04:46:07.584Z,20.64
2023-08-15T04:47:09.373Z,20.63
2023-08-15T04:48:11.686Z,20.63
2023-08-15T04:49:13.797Z,20.64
2023-08-15T04:50:15.938Z,20.64
2023-08-15T04:51:17.827Z,20.65
2023-08-15T04:52:19.627Z,20.65
2023-08-15T04:53:21.385Z,20.63
2023-08-15T04:54:23.031Z,20.61
2023-08-15T04:55:24.842Z,20.60
2023-08-15T04:56:26.697Z,20.63
2023-08-15T04:57:28.533Z,20.62
2023-08-15T04:58:30.713Z,20.58
2023-08-15T04:59:32.488Z,20.58
2023-08-15T05:00:35.523Z,20.58
2023-08-15T05:01:37.653Z,20.60
2023-08-15T05:02:40.451Z,20.59
2023-08-15T05:03:42.306Z,20.59
2023-08-15T05:04:44.003Z,20.54
2023-08-15T05:05:45.812Z,20.52
2023-08-15T05:06:47.630Z,20.52
2023-08-15T05:07:49.524Z,20.53
2023-08-15T05:08:51.307Z,20.53
2023-08-15T05:09:53.108Z,20.50
2023-08-15T05:10:55.712Z,20.49
2023-08-15T05:11:57.913Z,20.52
2023-08-15T05:13:00.603Z,20.53
2023-08-15T05:14:02.344Z,20.53
2023-08-15T05:15:04.438Z,20.55
2023-08-15T05:16:06.334Z,20.54
2023-08-15T05:17:08.119Z,20.54
2023-08-15T05:18:11.397Z,20.53
2023-08-15T05:19:13.181Z,20.54
2023-08-15T05:20:16.109Z,20.52
2023-08-15T05:21:17.845Z,20.48
2023-08-15T05:22:20.852Z,20.48
2023-08-15T05:23:22.787Z,20.48
2023-08-15T05:24:26.596Z,20.46
2023-08-15T05:25:28.441Z,20.46
2023-08-15T05:26:30.144Z,20.48
2023-08-15T05:27:31.894Z,20.48
2023-08-15T05:28:34.026Z,20.47
2023-08-15T05:29:35.759Z,20.47
2023-08-15T05:30:38.064Z,20.49
2023-08-15T05:31:39.841Z,20.49
2023-08-15T05:32:41.730Z,20.49
2023-08-15T05:33:43.568Z,20.48
2023-08-15T05:34:45.357Z,20.49
2023-08-15T05:35:47.144Z,20.49
2023-08-15T05:36:48.955Z,20.49
2023-08-15T05:37:50.792Z,20.48
2023-08-15T05:38:52.675Z,20.49
2023-08-15T05:39:54.601Z,20.49
2023-08-15T05:40:56.400Z,20.43
2023-08-15T05:41:58.181Z,20.42
2023-08-15T05:43:00.660Z,20.43
2023-08-15T05:44:02.780Z,20.42
2023-08-15T05:45:05.088Z,20.43
2023-08-15T05:46:06.942Z,20.44
2023-08-15T05:47:09.030Z,20.42
2023-08-15T05:48:12.387Z,20.44
2023-08-15T05:49:14.663Z,20.44
2023-08-15T05:50:16.653Z,20.43
2023-08-15T05:51:19.980Z,20.43
2023-08-15T05:52:21.909Z,20.41
2023-08-15T05:53:23.659Z,20.42
2023-08-15T05:54:25.457Z,20.41
2023-08-15T05:55:27.344Z,20.42
2023-08-15T05:56:29.131Z,20.44
2023-08-15T05:57:30.993Z,20.43
2023-08-15T05:58:32.947Z,20.45
2023-08-15T05:59:34.915Z,20.46
2023-08-15T06:00:39.301Z,20.48
2023-08-15T06:01:41.810Z,20.48
2023-08-15T06:02:43.669Z,20.50
2023-08-15T06:03:52.690Z,20.51
2023-08-15T06:04:55.486Z,20.52
2023-08-15T06:05:57.761Z,20.55
2023-08-15T06:06:59.611Z,20.54
2023-08-15T06:08:01.428Z,20.58
2023-08-15T06:09:03.339Z,20.63
2023-08-15T06:10:05.421Z,20.66
2023-08-15T06:11:07.270Z,20.71
2023-08-15T06:12:09.185Z,20.75
2023-08-15T06:13:11.013Z,20.78
2023-08-15T06:14:12.774Z,20.82
2023-08-15T06:15:15.450Z,20.85
2023-08-15T06:16:17.221Z,20.88
2023-08-15T06:17:20.420Z,20.90
2023-08-15T06:18:22.397Z,20.93
2023-08-15T06:19:24.344Z,20.96
2023-08-15T06:20:26.364Z,21.01
2023-08-15T06:21:28.117Z,21.03
2023-08-15T06:22:29.879Z,21.06
2023-08-15T06:23:31.676Z,21.10
2023-08-15T06:24:33.542Z,21.15
2023-08-15T06:25:36.023Z,21.18
2023-08-15T06:26:37.892Z,21.21
2023-08-15T06:27:39.670Z,21.25
2023-08-15T06:28:41.406Z,21.29
2023-08-15T06:29:43.518Z,21.30
2023-08-15T06:30:45.539Z,21.34
2023-08-15T06:31:47.346Z,21.38
2023-08-15T06:32:49.169Z,21.42
2023-08-15T06:33:50.931Z,21.45
2023-08-15T06:34:52.642Z,21.49
2023-08-15T06:35:54.466Z,21.51
2023-08-15T06:36:56.983Z,21.54
2023-08-15T06:37:59.092Z,21.56
2023-08-15T06:39:01.748Z,21.57
2023-08-15T06:40:04.756Z,21.59
2023-08-15T06:41:08.192Z,21.63
2023-08-15T06:42:12.167Z,21.65
2023-08-15T06:43:14.157Z,21.69
2023-08-15T06:44:16.143Z,21.71
2023-08-15T06:45:18.445Z,21.74
2023-08-15T06:46:20.454Z,21.78
2023-08-15T06:47:22.536Z,21.81
2023-08-15T06:48:24.597Z,21.85
2023-08-15T06:49:26.321Z,21.89
2023-08-15T06:50:28.199Z,21.93
2023-08-15T06:51:30.051Z,21.96
2023-08-15T06:52:32.367Z,21.98
2023-08-15T06:53:34.861Z,22.03
2023-08-15T06:54:37.867Z,22.05
2023-08-15T06:55:39.707Z,22.10
2023-08-15T06:56:41.600Z,22.14
2023-08-15T06:57:44.096Z,22.16
2023-08-15T06:58:45.966Z,22.20
2023-08-15T06:59:47.824Z,22.25
2023-08-15T07:00:49.713Z,22.28
2023-08-15T07:01:54.042Z,22.32
2023-08-15T07:02:55.843Z,22.37
2023-08-15T07:03:58.088Z,22.40
2023-08-15T07:04:59.876Z,22.44
2023-08-15T07:06:02.128Z,22.48
2023-08-15T07:07:04.413Z,22.51
2023-08-15T07:08:06.822Z,22.56
2023-08-15T07:09:08.925Z,22.61
2023-08-15T07:10:11.841Z,22.64
2023-08-15T07:11:13.871Z,22.69
2023-08-15T07:12:19.774Z,22.71
2023-08-15T07:13:22.158Z,22.75
2023-08-15T07:14:27.282Z,22.81
2023-08-15T07:15:29.503Z,22.83
2023-08-15T07:16:31.475Z,22.87
2023-08-15T07:17:33.661Z,22.90
2023-08-15T07:18:35.765Z,22.91
2023-08-15T07:19:37.863Z,22.94
2023-08-15T07:20:40.654Z,22.99
2023-08-15T07:21:42.935Z,23.03
2023-08-15T07:22:45.608Z,23.06
2023-08-15T07:23:47.563Z,23.11
2023-08-15T07:24:49.598Z,23.16
2023-08-15T07:25:51.612Z,23.18
2023-08-15T07:26:53.760Z,23.21
2023-08-15T07:27:55.660Z,23.24
2023-08-15T07:28:58.033Z,23.27
2023-08-15T07:30:00.160Z,23.30
2023-08-15T07:31:02.075Z,23.34
2023-08-15T07:32:04.325Z,23.39
2023-08-15T07:33:07.896Z,23.45
2023-08-15T07:34:09.674Z,23.47
2023-08-15T07:35:11.550Z,23.50
2023-08-15T07:36:13.637Z,23.56
2023-08-15T07:37:16.999Z,23.59
2023-08-15T07:38:19.266Z,23.63
2023-08-15T07:39:21.334Z,23.66
2023-08-15T07:40:23.866Z,23.69
2023-08-15T07:41:25.798Z,23.72
2023-08-15T07:42:30.572Z,23.76
2023-08-15T07:43:32.853Z,23.80
2023-08-15T07:44:34.684Z,23.83
2023-08-15T07:45:36.769Z,23.86
2023-08-15T07:46:39.014Z,23.88
2023-08-15T07:47:41.089Z,23.91
2023-08-15T07:48:44.461Z,23.93
2023-08-15T07:49:46.372Z,23.98
2023-08-15T07:50:48.376Z,24.00
2023-08-15T07:51:50.344Z,24.04
2023-08-15T07:52:52.364Z,24.06
2023-08-15T07:53:54.290Z,24.10
2023-08-15T07:54:56.197Z,24.13
2023-08-15T07:55:59.103Z,24.16
2023-08-15T07:57:01.064Z,24.21
2023-08-15T07:58:03.104Z,24.25
2023-08-15T07:59:05.303Z,24.29
2023-08-15T08:00:08.621Z,24.33
2023-08-15T08:01:10.727Z,24.34
2023-08-15T08:02:12.596Z,24.41
2023-08-15T08:03:14.576Z,24.43
2023-08-15T08:04:16.545Z,24.47
2023-08-15T08:05:18.529Z,24.51
2023-08-15T08:06:37.765Z,24.54
2023-08-15T08:07:43.432Z,24.59
2023-08-15T08:08:45.546Z,24.63
2023-08-15T08:09:47.583Z,24.69
2023-08-15T08:10:49.468Z,24.74
2023-08-15T08:11:51.473Z,24.77
2023-08-15T08:12:53.466Z,24.80
2023-08-15T08:13:55.676Z,24.84
2023-08-15T08:15:01.125Z,24.88
2023-08-15T08:16:04.309Z,24.88
2023-08-15T08:17:06.398Z,24.91
2023-08-15T08:18:08.220Z,24.93
2023-08-15T08:19:10.112Z,24.97
2023-08-15T08:20:17.354Z,24.98
2023-08-15T08:21:19.078Z,25.01
2023-08-15T08:22:21.126Z,25.05
2023-08-15T08:23:24.846Z,25.08
2023-08-15T08:24:26.671Z,25.10
2023-08-15T08:25:28.474Z,25.14
2023-08-15T08:26:30.677Z,25.16
2023-08-15T08:27:32.904Z,25.22
2023-08-15T08:28:34.811Z,25.26
2023-08-15T08:29:36.687Z,25.29
2023-08-15T08:30:39.151Z,25.32
2023-08-15T08:31:41.348Z,25.34
2023-08-15T08:32:43.472Z,25.38
2023-08-15T08:33:45.311Z,25.42
2023-08-15T08:34:47.209Z,25.42
2023-08-15T08:35:49.232Z,25.45
2023-08-15T08:36:51.470Z,25.47
2023-08-15T08:37:53.260Z,25.51
2023-08-15T08:38:55.409Z,25.55
2023-08-15T08:39:57.386Z,25.58
2023-08-15T08:40:59.372Z,25.62
2023-08-15T08:42:02.238Z,25.67
2023-08-15T08:43:05.046Z,25.70
2023-08-15T08:44:07.388Z,25.74
2023-08-15T08:45:12.563Z,25.78
2023-08-15T08:46:14.478Z,25.81
2023-08-15T08:47:19.431Z,25.84
2023-08-15T08:48:23.258Z,25.88
2023-08-15T08:49:28.020Z,25.90
2023-08-15T08:50:30.396Z,25.94
2023-08-15T08:51:33.537Z,25.97
2023-08-15T08:52:35.442Z,25.98
2023-08-15T08:53:37.269Z,26.00
2023-08-15T08:54:55.699Z,26.03
2023-08-15T08:55:58.828Z,26.05
2023-08-15T08:57:01.910Z,26.10
2023-08-15T08:58:04.320Z,26.11
2023-08-15T08:59:06.795Z,26.18
2023-08-15T09:00:13.288Z,26.19
2023-08-15T09:01:15.373Z,26.24
2023-08-15T09:02:20.902Z,26.27
2023-08-15T09:03:22.902Z,26.32
2023-08-15T09:04:24.878Z,26.40
2023-08-15T09:05:27.873Z,26.43
2023-08-15T09:06:29.700Z,26.43
2023-08-15T09:07:32.803Z,26.46
2023-08-15T09:08:34.681Z,26.49
2023-08-15T09:09:36.495Z,26.51
2023-08-15T09:10:38.404Z,26.54
2023-08-15T09:11:40.765Z,26.60
2023-08-15T09:12:43.831Z,26.62
2023-08-15T09:13:49.000Z,26.65
2023-08-15T09:14:50.742Z,26.68
2023-08-15T09:15:56.897Z,26.72
2023-08-15T09:16:59.028Z,26.78
2023-08-15T09:18:01.963Z,26.81
2023-08-15T09:19:04.468Z,26.86
2023-08-15T09:20:24.026Z,26.90
2023-08-15T09:21:28.316Z,26.91
2023-08-15T09:22:31.220Z,26.95
2023-08-15T09:23:33.218Z,26.99
2023-08-15T09:24:35.090Z,27.03
2023-08-15T09:25:38.326Z,27.08
2023-08-15T09:26:42.883Z,27.13
2023-08-15T09:27:45.451Z,27.20
2023-08-15T09:28:47.285Z,27.24
2023-08-15T09:29:48.962Z,27.26
2023-08-15T09:30:54.740Z,27.29
2023-08-15T09:31:56.671Z,27.32
2023-08-15T09:32:58.804Z,27.37
2023-08-15T09:34:00.693Z,27.40
2023-08-15T09:35:02.714Z,27.44
2023-08-15T09:36:06.805Z,27.49
2023-08-15T09:37:09.339Z,27.53
2023-08-15T09:38:11.858Z,27.57
2023-08-15T09:39:13.646Z,27.58
2023-08-15T09:40:19.931Z,27.62
2023-08-15T09:41:26.107Z,27.64
2023-08-15T09:42:29.767Z,27.68
2023-08-15T09:43:31.802Z,27.71
2023-08-15T09:44:39.340Z,27.76
2023-08-15T09:45:41.270Z,27.81
2023-08-15T09:46:44.616Z,27.84
2023-08-15T09:47:47.395Z,27.89
2023-08-15T09:48:50.091Z,27.95
2023-08-15T09:49:53.560Z,27.99
2023-08-15T09:50:56.326Z,28.03
2023-08-15T09:52:01.172Z,28.08
2023-08-15T09:53:05.236Z,28.11
2023-08-15T09:54:07.404Z,28.18
2023-08-15T09:55:11.395Z,28.22
2023-08-15T09:56:13.983Z,28.27
2023-08-15T09:57:16.310Z,28.35
2023-08-15T09:58:20.848Z,28.39
2023-08-15T09:59:22.665Z,28.44
2023-08-15T10:00:24.710Z,28.49
2023-08-15T10:01:31.556Z,28.55
2023-08-15T10:02:43.789Z,28.61
2023-08-15T10:03:46.358Z,28.68
2023-08-15T10:04:52.629Z,28.74
2023-08-15T10:05:56.455Z,28.80
2023-08-15T10:06:59.496Z,28.86
2023-08-15T10:08:01.294Z,28.92
2023-08-15T10:09:04.573Z,28.97
2023-08-15T10:10:06.656Z,29.03
2023-08-15T10:11:11.554Z,29.07
2023-08-15T10:12:13.468Z,29.11
2023-08-15T10:13:15.750Z,29.20
2023-08-15T10:14:19.223Z,29.25
2023-08-15T10:15:22.618Z,29.29
2023-08-15T10:16:26.115Z,29.34
2023-08-15T10:17:29.739Z,29.39
2023-08-15T10:18:32.729Z,29.45
2023-08-15T10:19:34.637Z,29.56
2023-08-15T10:20:39.952Z,29.62
2023-08-15T10:21:49.431Z,29.69
2023-08-15T10:22:54.275Z,29.79
2023-08-15T10:24:03.682Z,29.86
2023-08-15T10:25:23.866Z,29.89
2023-08-15T10:26:25.845Z,29.98
2023-08-15T10:27:27.685Z,30.03
2023-08-15T10:28:30.557Z,30.08
2023-08-15T10:29:32.368Z,30.13
2023-08-15T10:30:37.874Z,30.16
2023-08-15T10:31:40.755Z,30.24
2023-08-15T10:32:42.505Z,30.30
2023-08-15T10:33:46.594Z,30.37
2023-08-15T10:34:52.964Z,30.40
2023-08-15T10:35:57.910Z,30.46
2023-08-15T10:37:22.765Z,30.52
2023-08-15T10:38:28.868Z,30.59
2023-08-15T10:39:30.686Z,30.64
2023-08-15T10:40:40.362Z,30.70
2023-08-15T10:41:43.696Z,30.75
2023-08-15T10:43:03.504Z,30.79
2023-08-15T10:44:06.306Z,30.89
2023-08-15T10:45:13.211Z,30.99
2023-08-15T10:46:16.799Z,31.04
2023-08-15T10:47:25.173Z,31.12
2023-08-15T10:49:01.622Z,31.21
2023-08-15T10:50:06.516Z,31.29
2023-08-15T10:51:21.882Z,31.36
2023-08-15T10:52:24.062Z,31.46
2023-08-15T10:53:26.182Z,31.53
2023-08-15T10:54:27.971Z,31.58
2023-08-15T10:55:30.597Z,31.69
2023-08-15T10:56:33.557Z,31.74
2023-08-15T10:57:35.814Z,31.81
2023-08-15T10:58:41.255Z,31.84
2023-08-15T10:59:44.383Z,31.87
2023-08-15T11:00:46.186Z,31.90
2023-08-15T11:01:48.359Z,31.96
2023-08-15T11:02:51.216Z,31.97
2023-08-15T11:03:54.053Z,31.98
2023-08-15T11:04:55.850Z,32.00
2023-08-15T11:06:07.537Z,32.03
2023-08-15T11:07:09.427Z,32.06
2023-08-15T11:08:15.887Z,32.06
2023-08-15T11:09:18.755Z,32.12
2023-08-15T11:10:20.725Z,32.17
2023-08-15T11:11:23.041Z,32.22
2023-08-15T11:12:25.658Z,32.21
2023-08-15T11:13:27.821Z,32.17
2023-08-15T11:14:29.619Z,32.18
2023-08-15T11:15:32.404Z,32.26
2023-08-15T11:16:34.748Z,32.32
2023-08-15T11:17:36.658Z,32.38
2023-08-15T11:18:38.570Z,32.44
2023-08-15T11:19:40.814Z,32.47
2023-08-15T11:20:42.698Z,32.56
2023-08-15T11:21:44.682Z,32.65
2023-08-15T11:22:55.877Z,32.72
2023-08-15T11:24:01.019Z,32.80
2023-08-15T11:25:02.786Z,32.86
2023-08-15T11:26:05.438Z,32.90
2023-08-15T11:27:07.234Z,32.91
2023-08-15T11:28:08.947Z,32.96
2023-08-15T11:29:14.567Z,33.00
2023-08-15T11:30:16.727Z,33.03
2023-08-15T11:31:23.165Z,33.12
2023-08-15T11:32:25.813Z,33.17
2023-08-15T11:33:29.737Z,33.21
2023-08-15T11:34:31.689Z,33.23
2023-08-15T11:35:33.429Z,33.28
2023-08-15T11:36:35.339Z,33.28
2023-08-15T11:37:37.664Z,33.30
2023-08-15T11:38:40.220Z,33.36
2023-08-15T11:39:42.074Z,33.38
2023-08-15T11:40:44.268Z,33.37
2023-08-15T11:41:46.567Z,33.41
2023-08-15T11:42:48.996Z,33.41
2023-08-15T11:43:51.207Z,33.47
2023-08-15T11:45:09.231Z,33.51
2023-08-15T11:46:12.041Z,33.56
2023-08-15T11:47:19.939Z,33.62
2023-08-15T11:48:22.369Z,33.65
2023-08-15T11:49:24.691Z,33.64
2023-08-15T11:50:41.935Z,33.66
2023-08-15T11:51:46.245Z,33.70
2023-08-15T11:52:48.136Z,33.69
2023-08-15T11:53:53.687Z,33.76
2023-08-15T11:54:55.558Z,33.84
2023-08-15T11:55:57.271Z,33.93
2023-08-15T11:56:59.605Z,33.99
2023-08-15T11:58:01.392Z,34.04
2023-08-15T11:59:05.370Z,34.12
2023-08-15T12:00:07.472Z,34.15
2023-08-15T12:01:13.167Z,34.21
2023-08-15T12:02:15.169Z,34.26
2023-08-15T12:03:17.288Z,34.35
2023-08-15T12:04:19.469Z,34.41
2023-08-15T12:05:21.340Z,34.44
2023-08-15T12:06:23.089Z,34.50
2023-08-15T12:07:25.130Z,34.53
2023-08-15T12:08:27.643Z,34.56
2023-08-15T12:09:31.082Z,34.64
2023-08-15T12:10:33.208Z,34.73
2023-08-15T12:11:36.023Z,34.83
2023-08-15T12:12:39.150Z,34.86
2023-08-15T12:13:41.681Z,34.89
2023-08-15T12:14:50.791Z,34.92
2023-08-15T12:15:53.597Z,34.93
2023-08-15T12:16:55.492Z,34.97
2023-08-15T12:17:57.321Z,34.99
2023-08-15T12:18:59.173Z,35.00
2023-08-15T12:20:01.765Z,34.98
2023-08-15T12:21:06.054Z,35.06
2023-08-15T12:22:07.982Z,35.14
2023-08-15T12:23:15.382Z,35.20
2023-08-15T12:24:21.062Z,35.28
2023-08-15T12:25:23.157Z,35.31
2023-08-15T12:26:25.093Z,35.36
2023-08-15T12:27:27.259Z,35.40
2023-08-15T12:28:29.625Z,35.46
2023-08-15T12:30:13.293Z,35.53
2023-08-15T12:30:53.656Z,35.59
2023-08-15T12:31:55.464Z,35.61
2023-08-15T12:32:57.480Z,35.63
2023-08-15T12:33:59.351Z,35.68
2023-08-15T12:35:01.153Z,35.74
2023-08-15T12:36:03.374Z,35.75
2023-08-15T12:37:05.144Z,35.76
2023-08-15T12:38:06.947Z,35.77
2023-08-15T12:39:09.498Z,35.80
2023-08-15T12:40:18.317Z,35.82
2023-08-15T12:41:24.023Z,35.80
2023-08-15T12:42:26.343Z,35.83
2023-08-15T12:43:28.254Z,35.83
2023-08-15T12:44:30.224Z,35.84
2023-08-15T12:45:32.051Z,35.86
2023-08-15T12:46:33.881Z,35.83
2023-08-15T12:47:37.420Z,35.82
2023-08-15T12:48:39.331Z,35.91
2023-08-15T12:49:41.260Z,35.92
2023-08-15T12:50:43.049Z,35.95
2023-08-15T12:51:44.882Z,35.97
2023-08-15T12:52:46.845Z,36.00
2023-08-15T12:53:48.790Z,35.91
2023-08-15T12:54:50.584Z,35.92
2023-08-15T12:55:52.766Z,35.96
2023-08-15T12:56:54.748Z,36.03
2023-08-15T12:57:56.676Z,36.07
2023-08-15T12:58:58.840Z,36.13
2023-08-15T13:00:00.726Z,36.20
2023-08-15T13:01:02.936Z,36.21
2023-08-15T13:02:05.166Z,36.17
2023-08-15T13:03:07.020Z,36.10
2023-08-15T13:04:13.598Z,36.05
2023-08-15T13:05:15.540Z,36.07
2023-08-15T13:06:17.581Z,36.07
2023-08-15T13:07:19.379Z,36.05
2023-08-15T13:08:22.703Z,36.12
2023-08-15T13:09:24.883Z,36.21
2023-08-15T13:10:26.917Z,36.18
2023-08-15T13:11:29.018Z,36.17
2023-08-15T13:12:30.909Z,36.22
2023-08-15T13:13:32.812Z,36.26
2023-08-15T13:14:34.807Z,36.25
2023-08-15T13:15:36.601Z,36.25
2023-08-15T13:16:39.196Z,36.30
2023-08-15T13:17:41.950Z,36.30
2023-08-15T13:18:45.568Z,36.35
2023-08-15T13:19:47.362Z,36.40
2023-08-15T13:20:49.256Z,36.46
2023-08-15T13:21:51.160Z,36.45
2023-08-15T13:22:55.063Z,36.48
2023-08-15T13:23:57.551Z,36.50
2023-08-15T13:24:59.738Z,36.43
2023-08-15T13:26:01.904Z,36.47
2023-08-15T13:27:03.767Z,36.50
2023-08-15T13:28:06.076Z,36.54
2023-08-15T13:29:08.323Z,36.59
2023-08-15T13:30:10.549Z,36.63
2023-08-15T13:31:12.339Z,36.56
2023-08-15T13:32:14.460Z,36.55
2023-08-15T13:33:17.379Z,36.56
2023-08-15T13:34:21.522Z,36.59